Time;durP1;ratioP1;P1;durP2;ratioP2;P2;SDS_P1;SDS_P2;PMS_P1;PMS_P2;Temp;Humidity;BMP_temperature;BMP_pressure;BME280_temperature;BME280_humidity;BME280_pressure;Samples;Min_cycle;Max_cycle;Signal;HPM_P1;HPM_P2
2022/11/06 00:01:47;;;;;;;7.85;3.13;;;9.20;99.90;;;;;;6129460;19;19936;-68
2022/11/06 00:03:53;;;;;;;5.47;3.90;;;9.20;99.90;;;;;;6130560;19;19918;-69
2022/11/06 00:08:16;;;;;;;5.25;3.13;;;9.20;99.90;;;;;;6130664;19;19922;-68
2022/11/06 00:10:20;;;;;;;4.75;3.05;;;;;;;;;;6129369;19;20252;-69
2022/11/06 00:12:25;;;;;;;8.38;3.28;;;;;;;;;;6130921;19;19915;-68
2022/11/06 00:14:29;;;;;;;9.85;3.72;;;9.10;99.90;;;;;;6128827;19;19918;-69
2022/11/06 00:16:33;;;;;;;5.60;3.40;;;9.20;99.90;;;;;;6129272;19;19937;-68
2022/11/06 00:18:38;;;;;;;4.05;2.70;;;9.30;99.90;;;;;;6129679;19;19915;-69
2022/11/06 00:20:42;;;;;;;4.90;3.00;;;9.40;99.90;;;;;;6131364;19;19942;-69
2022/11/06 00:22:46;;;;;;;10.27;3.47;;;9.80;99.90;;;;;;6127932;19;20349;-69
2022/11/06 00:24:52;;;;;;;7.18;2.97;;;9.30;99.90;;;;;;6128007;19;20339;-68
2022/11/06 00:26:56;;;;;;;8.43;3.65;;;9.00;99.90;;;;;;6129854;19;19922;-69
2022/11/06 00:29:01;;;;;;;5.90;3.47;;;9.30;99.90;;;;;;6128558;19;19946;-69
2022/11/06 00:31:06;;;;;;;6.80;3.40;;;8.80;99.90;;;;;;6132337;19;19945;-68
2022/11/06 00:33:10;;;;;;;8.30;2.80;;;9.00;99.90;;;;;;6131551;19;19930;-69
2022/11/06 00:35:14;;;;;;;5.22;3.15;;;9.00;99.90;;;;;;6129866;19;19923;-68
2022/11/06 00:37:18;;;;;;;6.65;3.35;;;9.00;99.90;;;;;;6128039;19;20332;-69
2022/11/06 00:39:22;;;;;;;7.18;3.45;;;9.30;99.90;;;;;;6127319;19;19945;-69
2022/11/06 00:41:29;;;;;;;5.05;3.28;;;9.00;99.90;;;;;;6131685;19;19926;-69
2022/11/06 00:43:34;;;;;;;6.18;2.95;;;;;;;;;;6130801;19;19922;-68
2022/11/06 00:45:38;;;;;;;7.45;3.42;;;;;;;;;;6129856;19;19922;-68
2022/11/06 00:47:42;;;;;;;4.57;3.08;;;9.40;99.90;;;;;;6128908;19;19946;-69
2022/11/06 00:49:46;;;;;;;5.47;3.05;;;;;;;;;;6129016;19;19915;-68
2022/11/06 00:51:50;;;;;;;7.00;3.10;;;9.00;99.90;;;;;;6129629;19;20344;-68
2022/11/06 00:53:57;;;;;;;6.82;3.78;;;9.20;99.90;;;;;;6129130;19;19937;-69
2022/11/06 00:56:06;;;;;;;9.40;3.20;;;8.80;99.90;;;;;;6130004;19;19922;-69
2022/11/06 00:58:13;;;;;;;4.90;3.15;;;8.80;99.90;;;;;;6129950;19;19941;-69
2022/11/06 01:00:19;;;;;;;8.27;3.60;;;9.00;99.90;;;;;;6126480;19;19914;-70
2022/11/06 01:02:23;;;;;;;5.18;3.05;;;8.90;99.90;;;;;;6129716;19;19943;-68
2022/11/06 01:04:27;;;;;;;6.28;3.53;;;8.90;99.90;;;;;;6129000;19;19918;-69
2022/11/06 01:06:33;;;;;;;9.00;3.35;;;8.80;99.90;;;;;;6126231;19;19942;-68
2022/11/06 01:08:37;;;;;;;6.13;3.05;;;8.70;99.90;;;;;;6130411;19;19918;-69
2022/11/06 01:10:41;;;;;;;5.43;3.45;;;8.50;99.90;;;;;;6127515;19;19915;-68
2022/11/06 01:12:45;;;;;;;7.57;3.53;;;8.60;99.90;;;;;;6128560;19;19941;-69
2022/11/06 01:14:52;;;;;;;5.80;3.28;;;9.00;99.90;;;;;;6127801;19;19919;-68
2022/11/06 01:16:56;;;;;;;7.85;3.42;;;9.00;99.90;;;;;;6131036;19;20340;-69
2022/11/06 01:19:01;;;;;;;7.20;3.00;;;9.00;99.90;;;;;;6128493;19;19918;-68
2022/11/06 01:21:06;;;;;;;7.05;4.00;;;8.70;99.90;;;;;;6127573;19;19937;-69
2022/11/06 01:23:10;;;;;;;8.38;3.10;;;8.70;99.90;;;;;;6130854;19;19919;-69
2022/11/06 01:25:14;;;;;;;4.65;3.33;;;;;;;;;;6127286;19;19922;-69
2022/11/06 01:27:18;;;;;;;8.52;3.33;;;8.60;99.90;;;;;;6126601;19;20327;-68
2022/11/06 01:29:22;;;;;;;7.00;3.30;;;8.80;99.90;;;;;;6130458;19;19935;-68
2022/11/06 01:31:31;;;;;;;9.50;4.32;;;8.90;99.90;;;;;;6129547;19;19945;-69
2022/11/06 01:33:34;;;;;;;8.13;3.38;;;8.60;99.90;;;;;;6126756;19;20332;-68
2022/11/06 01:35:45;;;;;;;5.75;3.20;;;8.40;99.90;;;;;;6129440;19;19918;-69
2022/11/06 01:37:49;;;;;;;6.18;3.42;;;8.80;99.90;;;;;;6126262;19;19938;-69
2022/11/06 01:39:53;;;;;;;8.52;4.10;;;8.60;99.90;;;;;;6127146;19;19942;-68
2022/11/06 01:41:57;;;;;;;7.30;4.53;;;8.40;99.90;;;;;;6128118;19;20099;-69
2022/11/06 01:44:03;;;;;;;9.07;4.22;;;8.90;99.90;;;;;;6127657;19;19942;-68
2022/11/06 01:46:07;;;;;;;9.98;4.22;;;8.30;99.90;;;;;;6126828;19;19914;-68
2022/11/06 01:48:15;;;;;;;7.45;3.72;;;8.10;99.90;;;;;;6126958;19;19946;-69
2022/11/06 01:50:20;;;;;;;6.40;4.00;;;8.30;99.90;;;;;;6130969;19;19919;-69
2022/11/06 01:52:25;;;;;;;7.60;3.70;;;8.10;99.90;;;;;;6126574;19;19926;-69
2022/11/06 01:54:31;;;;;;;7.60;3.65;;;7.50;99.90;;;;;;6127090;19;19933;-69
2022/11/06 01:56:35;;;;;;;8.18;3.88;;;8.30;99.90;;;;;;6128743;19;20265;-69
2022/11/06 01:58:42;;;;;;;8.35;4.30;;;8.70;99.90;;;;;;6126933;19;19926;-68
2022/11/06 02:00:48;;;;;;;6.13;3.90;;;8.40;99.90;;;;;;6124932;19;19915;-68
2022/11/06 02:02:52;;;;;;;6.43;3.88;;;8.50;99.90;;;;;;6127505;19;19922;-69
2022/11/06 02:04:58;;;;;;;7.55;4.38;;;8.30;99.90;;;;;;6128000;19;19918;-68
2022/11/06 02:07:03;;;;;;;14.88;5.20;;;8.30;99.90;;;;;;6125492;19;19922;-69
2022/11/06 02:09:10;;;;;;;8.05;4.32;;;7.90;99.90;;;;;;6123252;19;19926;-69
2022/11/06 02:11:14;;;;;;;7.35;4.63;;;8.20;99.90;;;;;;6127047;19;19923;-68
2022/11/06 02:13:34;;;;;;;9.15;3.78;;;8.30;99.90;;;;;;6127466;19;20355;-68
2022/11/06 02:15:48;;;;;;;10.00;4.63;;;8.50;99.90;;;;;;6126050;19;20360;-69
2022/11/06 02:18:05;;;;;;;7.28;4.00;;;9.00;99.90;;;;;;6130348;19;19918;-68
2022/11/06 02:20:17;;;;;;;9.93;4.25;;;8.50;99.90;;;;;;6128087;19;19953;-68
2022/11/06 02:22:33;;;;;;;6.07;3.05;;;8.70;99.90;;;;;;6128741;19;19922;-68
2022/11/06 02:25:00;;;;;;;10.02;4.05;;;8.40;99.90;;;;;;6127139;19;19926;-69
2022/11/06 02:27:12;;;;;;;7.55;3.33;;;8.40;99.90;;;;;;6126420;19;19929;-69
2022/11/06 02:29:21;;;;;;;9.20;3.92;;;8.90;99.90;;;;;;6129034;19;19923;-68
2022/11/06 02:31:28;;;;;;;7.43;3.63;;;8.20;99.90;;;;;;6126325;19;19922;-69
2022/11/06 02:33:36;;;;;;;8.30;3.85;;;8.20;99.90;;;;;;6129717;19;19922;-69
2022/11/06 02:35:46;;;;;;;6.75;3.85;;;8.50;99.90;;;;;;6127306;19;19945;-68
2022/11/06 02:37:53;;;;;;;5.25;3.28;;;8.30;99.90;;;;;;6126299;19;19919;-69
2022/11/06 02:39:59;;;;;;;5.15;3.40;;;8.10;99.90;;;;;;6127387;19;19918;-69
2022/11/06 02:42:09;;;;;;;5.82;3.60;;;8.60;99.90;;;;;;6128226;19;19941;-68
2022/11/06 02:44:16;;;;;;;9.05;4.55;;;8.50;99.90;;;;;;6126415;19;19942;-69
2022/11/06 02:46:24;;;;;;;7.85;3.95;;;8.30;99.90;;;;;;6130232;19;19941;-69
2022/11/06 02:48:32;;;;;;;8.05;4.15;;;8.70;99.90;;;;;;6132000;19;19927;-68
2022/11/06 02:50:41;;;;;;;7.07;3.17;;;8.50;99.90;;;;;;6131309;19;20020;-68
2022/11/06 02:52:49;;;;;;;11.65;4.25;;;8.50;99.90;;;;;;6133225;19;19919;-69
2022/11/06 02:54:58;;;;;;;11.82;3.95;;;8.70;99.90;;;;;;6131031;19;19918;-69
2022/11/06 02:57:10;;;;;;;9.00;4.35;;;8.30;99.90;;;;;;6132690;19;19919;-69
2022/11/06 02:59:19;;;;;;;7.88;3.80;;;8.40;99.90;;;;;;6133397;19;19945;-68
2022/11/06 03:01:28;;;;;;;6.80;4.05;;;8.70;99.90;;;;;;6130586;19;19923;-68
2022/11/06 03:03:35;;;;;;;8.82;4.30;;;8.20;99.90;;;;;;6134019;19;19930;-68
2022/11/06 03:05:45;;;;;;;7.10;4.30;;;8.50;99.90;;;;;;6130415;19;19919;-69
2022/11/06 03:07:55;;;;;;;8.10;3.15;;;8.20;99.90;;;;;;6129151;19;19911;-69
2022/11/06 03:09:59;;;;;;;5.28;3.47;;;8.40;99.90;;;;;;6132742;19;19918;-68
2022/11/06 03:12:09;;;;;;;7.60;3.83;;;8.10;99.90;;;;;;6131309;19;19910;-68
2022/11/06 03:14:21;;;;;;;6.45;3.88;;;8.10;99.90;;;;;;6131044;19;19938;-68
2022/11/06 03:16:31;;;;;;;7.18;3.33;;;8.70;99.90;;;;;;6128869;19;19922;-68
2022/11/06 03:18:40;;;;;;;6.95;3.70;;;8.40;99.90;;;;;;6132296;19;19925;-69
2022/11/06 03:20:52;;;;;;;6.93;3.58;;;8.50;99.90;;;;;;6131450;19;19910;-69
2022/11/06 03:23:00;;;;;;;10.32;4.15;;;8.60;99.90;;;;;;6133674;19;19919;-68
2022/11/06 03:25:15;;;;;;;7.72;4.15;;;8.10;99.90;;;;;;6130631;19;19915;-69
2022/11/06 03:27:19;;;;;;;;;;;8.30;99.90;;;;;;6134945;19;19918;-68
2022/11/06 03:29:31;;;;;;;8.00;3.67;;;8.30;99.90;;;;;;6132863;19;20461;-68
2022/11/06 03:31:39;;;;;;;9.38;3.85;;;8.20;99.90;;;;;;6128353;19;19939;-68
2022/11/06 03:33:48;;;;;;;7.85;3.78;;;8.00;99.90;;;;;;6131983;19;19919;-68
2022/11/06 03:35:56;;;;;;;8.55;3.72;;;7.90;99.90;;;;;;6131933;19;19962;-68
2022/11/06 03:38:05;;;;;;;6.72;3.72;;;8.50;99.90;;;;;;6132289;19;19922;-69
2022/11/06 03:40:13;;;;;;;7.25;4.00;;;8.00;99.90;;;;;;6128755;19;19914;-68
2022/11/06 03:42:21;;;;;;;7.78;3.47;;;7.80;99.90;;;;;;6131785;19;19918;-69
2022/11/06 03:44:31;;;;;;;4.88;3.30;;;8.40;99.90;;;;;;6131303;19;19927;-69
2022/11/06 03:46:40;;;;;;;5.75;3.35;;;7.90;99.90;;;;;;6128453;19;19923;-69
2022/11/06 03:48:47;;;;;;;6.80;3.60;;;8.40;99.90;;;;;;6131415;19;19934;-69
2022/11/06 03:50:58;;;;;;;8.90;4.10;;;8.20;99.90;;;;;;6131294;19;19926;-69
2022/11/06 03:53:08;;;;;;;6.68;3.90;;;8.10;99.90;;;;;;6129379;19;19937;-69
2022/11/06 03:55:16;;;;;;;9.50;3.90;;;8.00;99.90;;;;;;6131204;19;19941;-69
2022/11/06 03:57:25;;;;;;;8.05;4.05;;;7.70;99.90;;;;;;6130207;19;20347;-69
2022/11/06 03:59:41;;;;;;;3.95;2.80;;;8.20;99.90;;;;;;6132893;19;19922;-69
2022/11/06 04:01:48;;;;;;;11.70;4.32;;;8.30;99.90;;;;;;6129639;19;20264;-68
2022/11/06 04:03:58;;;;;;;6.05;2.97;;;8.30;99.90;;;;;;6128599;19;20400;-69
2022/11/06 04:06:08;;;;;;;9.77;3.70;;;8.10;99.90;;;;;;6130490;19;20257;-69
2022/11/06 04:15:14;;;;;;;6.85;3.40;;;8.30;99.90;;;;;;6129680;19;19993;-69
2022/11/06 04:17:19;;;;;;;8.10;3.60;;;8.10;99.90;;;;;;6129475;19;19942;-68
2022/11/06 04:19:24;;;;;;;10.23;4.40;;;7.60;99.90;;;;;;6131798;19;19918;-68
2022/11/06 04:21:44;;;;;;;8.63;3.58;;;8.00;99.90;;;;;;6130283;19;19914;-68
2022/11/06 04:26:39;;;;;;;5.78;3.45;;;7.60;99.90;;;;;;6129539;19;19941;-68
2022/11/06 04:28:48;;;;;;;6.78;3.47;;;8.60;99.90;;;;;;6128686;19;19938;-68
2022/11/06 04:31:03;;;;;;;6.57;3.35;;;7.80;99.90;;;;;;6129295;19;19918;-68
2022/11/06 04:33:12;;;;;;;7.10;3.60;;;7.80;99.90;;;;;;6129758;19;19945;-68
2022/11/06 04:35:26;;;;;;;7.25;3.42;;;8.20;99.90;;;;;;6131186;19;19927;-68
2022/11/06 04:37:38;;;;;;;7.70;2.40;;;8.10;99.90;;;;;;6129173;19;19957;-69
2022/11/06 04:39:50;;;;;;;5.57;2.97;;;7.60;99.90;;;;;;6130412;19;19938;-69
2022/11/06 04:42:02;;;;;;;6.38;3.63;;;8.30;99.90;;;;;;6131446;19;19937;-68
2022/11/06 04:44:11;;;;;;;12.20;3.97;;;8.20;99.90;;;;;;6126986;19;19918;-68
2022/11/06 04:46:23;;;;;;;6.00;3.00;;;8.30;99.90;;;;;;6124187;19;19954;-68
2022/11/06 04:48:28;;;;;;;8.10;3.28;;;8.10;99.90;;;;;;6128051;19;19914;-68
2022/11/06 04:50:37;;;;;;;4.90;2.30;;;7.80;99.90;;;;;;6132830;19;19922;-69
2022/11/06 04:52:42;;;;;;;5.22;3.00;;;8.10;99.90;;;;;;6129267;19;20339;-68
2022/11/06 04:54:47;;;;;;;5.65;2.90;;;8.00;99.90;;;;;;6128988;19;19931;-69
2022/11/06 04:56:51;;;;;;;7.95;3.22;;;8.20;99.90;;;;;;6128631;19;19915;-68
2022/11/06 04:58:55;;;;;;;7.53;2.97;;;8.10;99.90;;;;;;6127469;19;20344;-68
2022/11/06 05:00:59;;;;;;;6.30;3.05;;;;;;;;;;6128759;19;19923;-69
2022/11/06 05:03:06;;;;;;;6.63;3.13;;;8.20;99.90;;;;;;6132628;19;19942;-69
2022/11/06 05:05:10;;;;;;;6.00;3.00;;;;;;;;;;6129572;19;20263;-69
2022/11/06 05:07:15;;;;;;;4.95;2.85;;;8.40;99.90;;;;;;6127021;19;19918;-69
2022/11/06 05:09:21;;;;;;;4.43;2.55;;;7.60;99.90;;;;;;6126914;19;19927;-68
2022/11/06 05:11:26;;;;;;;4.22;2.78;;;;;;;;;;6126232;19;19941;-69
2022/11/06 05:13:29;;;;;;;5.68;2.50;;;8.00;99.90;;;;;;6127444;19;20292;-69
2022/11/06 05:15:34;;;;;;;4.25;2.40;;;8.30;99.90;;;;;;6129949;19;19946;-69
2022/11/06 05:17:38;;;;;;;6.72;2.80;;;7.80;99.90;;;;;;6125907;19;20011;-69
2022/11/06 05:19:44;;;;;;;6.07;2.50;;;8.50;99.90;;;;;;6129618;19;19953;-68
2022/11/06 05:24:05;;;;;;;5.85;2.75;;;8.00;99.90;;;;;;6128567;19;19922;-69
2022/11/06 05:26:09;;;;;;;7.20;2.42;;;8.50;99.90;;;;;;6129283;19;19919;-69
2022/11/06 05:28:13;;;;;;;3.72;2.55;;;8.00;99.90;;;;;;6129022;19;19926;-68
2022/11/06 05:30:17;;;;;;;8.20;3.15;;;8.50;99.90;;;;;;6128689;19;19977;-69
2022/11/06 05:32:21;;;;;;;6.85;2.67;;;8.30;99.90;;;;;;6131049;19;19923;-69
2022/11/06 05:34:25;;;;;;;4.15;2.53;;;9.00;99.90;;;;;;6127977;19;19926;-68
2022/11/06 05:36:32;;;;;;;7.25;2.55;;;8.10;99.90;;;;;;6129345;19;19922;-68
2022/11/06 05:38:36;;;;;;;5.28;2.90;;;8.40;99.90;;;;;;6126677;19;19937;-68
2022/11/06 05:40:40;;;;;;;6.93;3.28;;;;;;;;;;6127211;19;19923;-71
2022/11/06 05:42:45;;;;;;;4.03;2.47;;;8.20;99.90;;;;;;6131885;19;19949;-67
2022/11/06 05:44:49;;;;;;;4.88;2.65;;;;;;;;;;6126650;19;19914;-69
2022/11/06 05:46:53;;;;;;;4.30;2.25;;;8.10;99.90;;;;;;6129110;19;19986;-69
2022/11/06 05:48:57;;;;;;;6.32;2.65;;;8.20;99.90;;;;;;6127912;19;19922;-69
2022/11/06 05:51:04;;;;;;;4.47;2.33;;;8.40;99.90;;;;;;6127990;19;19919;-69
2022/11/06 05:53:11;;;;;;;5.35;2.55;;;8.10;99.90;;;;;;6128053;19;19922;-68
2022/11/06 05:55:15;;;;;;;5.22;2.30;;;8.30;99.90;;;;;;6125610;19;19925;-69
2022/11/06 05:57:19;;;;;;;5.47;2.65;;;8.40;99.90;;;;;;6128095;19;19915;-69
2022/11/06 05:59:22;;;;;;;5.50;2.50;;;8.10;99.90;;;;;;6126636;19;19946;-68
2022/11/06 06:01:26;;;;;;;3.03;1.58;;;7.90;99.90;;;;;;6128689;19;19926;-69
2022/11/06 06:03:30;;;;;;;6.35;2.17;;;8.10;99.90;;;;;;6126808;19;19953;-68
2022/11/06 06:05:34;;;;;;;7.32;2.30;;;;;;;;;;6127016;19;19928;-69
2022/11/06 06:07:38;;;;;;;5.43;2.95;;;8.10;99.90;;;;;;6127189;19;20335;-68
2022/11/06 06:09:45;;;;;;;5.05;2.38;;;8.10;99.90;;;;;;6127331;19;19949;-68
2022/11/06 06:11:52;;;;;;;7.43;2.20;;;8.30;99.90;;;;;;6123135;19;19918;-69
2022/11/06 06:13:56;;;;;;;5.63;2.22;;;8.40;99.90;;;;;;6122952;19;19934;-69
2022/11/06 06:16:03;;;;;;;7.95;2.67;;;8.00;99.90;;;;;;6125453;19;19926;-68
2022/11/06 06:18:07;;;;;;;5.50;2.58;;;8.50;99.90;;;;;;6127131;19;19911;-68
2022/11/06 06:20:13;;;;;;;9.98;2.83;;;8.60;99.90;;;;;;6126095;19;20341;-68
2022/11/06 06:22:16;;;;;;;3.78;1.70;;;8.10;99.90;;;;;;6126781;19;19922;-69
2022/11/06 06:24:20;;;;;;;4.22;2.65;;;;;;;;;;6127120;19;19918;-68
2022/11/06 06:26:27;;;;;;;9.65;2.22;;;8.50;99.90;;;;;;6124641;19;19929;-68
2022/11/06 06:28:31;;;;;;;3.28;1.80;;;;;;;;;;6126179;19;19910;-69
2022/11/06 06:30:35;;;;;;;7.15;2.47;;;8.30;99.90;;;;;;6127447;19;19923;-69
2022/11/06 06:32:39;;;;;;;4.68;1.75;;;8.30;99.90;;;;;;6126566;19;19919;-69
2022/11/06 06:34:43;;;;;;;4.80;1.92;;;8.70;99.90;;;;;;6127005;19;19923;-68
2022/11/06 06:36:51;;;;;;;7.32;2.10;;;8.20;99.90;;;;;;6127778;19;19942;-68
2022/11/06 06:38:56;;;;;;;6.75;1.70;;;8.60;99.90;;;;;;6126487;19;19915;-68
2022/11/06 06:41:03;;;;;;;8.30;2.05;;;7.80;99.90;;;;;;6126919;19;19922;-69
2022/11/06 06:43:10;;;;;;;2.13;1.48;;;8.10;99.90;;;;;;6126441;19;19922;-69
2022/11/06 06:45:14;;;;;;;5.55;1.85;;;8.20;99.90;;;;;;6125432;19;19932;-68
2022/11/06 06:47:25;;;;;;;4.40;2.20;;;8.50;99.90;;;;;;6128779;19;19997;-68
2022/11/06 06:49:29;;;;;;;5.00;1.75;;;8.30;99.90;;;;;;6124230;19;19978;-68
2022/11/06 06:51:33;;;;;;;7.07;2.38;;;7.90;99.90;;;;;;6126872;19;19919;-68
2022/11/06 06:53:37;;;;;;;4.32;1.73;;;7.90;99.90;;;;;;6125719;19;19918;-69
2022/11/06 06:55:41;;;;;;;6.10;1.95;;;;;;;;;;6126772;19;19941;-69
2022/11/06 06:57:45;;;;;;;6.88;2.03;;;8.60;99.90;;;;;;6128386;19;19930;-69
2022/11/06 06:59:52;;;;;;;5.15;1.90;;;8.10;99.90;;;;;;6128671;19;19923;-69
2022/11/06 07:01:56;;;;;;;5.05;2.42;;;8.30;99.90;;;;;;6122342;19;19918;-69
2022/11/06 07:04:00;;;;;;;4.40;1.90;;;;;;;;;;6125216;19;20360;-68
2022/11/06 07:06:04;;;;;;;4.03;2.10;;;;;;;;;;6126472;19;19918;-69
2022/11/06 07:08:08;;;;;;;7.25;2.17;;;8.70;99.90;;;;;;6125502;19;19917;-68
2022/11/06 07:10:12;;;;;;;5.63;1.73;;;8.10;99.90;;;;;;6123903;19;19945;-69
2022/11/06 07:12:16;;;;;;;3.45;1.75;;;;;;;;;;6125332;19;20371;-69
2022/11/06 07:14:20;;;;;;;2.05;1.45;;;8.50;99.90;;;;;;6124457;19;19942;-68
2022/11/06 07:16:28;;;;;;;7.97;2.15;;;8.50;99.90;;;;;;6124128;19;19928;-69
2022/11/06 07:18:32;;;;;;;8.85;2.20;;;8.40;99.90;;;;;;6126501;19;19914;-69
2022/11/06 07:20:38;;;;;;;3.30;1.48;;;8.30;99.90;;;;;;6124843;19;19946;-68
2022/11/06 07:22:42;;;;;;;3.80;1.70;;;8.50;99.90;;;;;;6127357;19;19918;-68
2022/11/06 07:24:46;;;;;;;5.60;1.77;;;;;;;;;;6124056;19;19930;-69
2022/11/06 07:26:50;;;;;;;7.72;2.63;;;8.60;99.90;;;;;;6124668;19;19919;-68
2022/11/06 07:28:53;;;;;;;3.40;1.60;;;8.50;99.90;;;;;;6127724;19;19918;-68
2022/11/06 07:31:00;;;;;;;6.00;1.90;;;8.10;99.90;;;;;;6127111;19;19945;-68
2022/11/06 07:33:07;;;;;;;3.70;1.58;;;8.90;99.90;;;;;;6131800;19;20365;-69
2022/11/06 07:35:11;;;;;;;3.67;1.35;;;8.40;99.90;;;;;;6130894;19;19923;-68
2022/11/06 07:37:15;;;;;;;3.38;1.48;;;9.10;99.90;;;;;;6130747;19;19919;-69
2022/11/06 07:39:19;;;;;;;2.97;1.50;;;9.20;99.90;;;;;;6132260;19;19945;-71
2022/11/06 07:41:23;;;;;;;4.32;1.58;;;9.00;99.90;;;;;;6132531;19;19941;-69
2022/11/06 07:43:27;;;;;;;3.20;2.42;;;9.10;99.90;;;;;;6132117;19;19938;-68
2022/11/06 07:45:31;;;;;;;5.90;1.30;;;9.00;99.90;;;;;;6132032;19;19938;-68
2022/11/06 07:47:34;;;;;;;8.18;2.38;;;8.70;99.90;;;;;;6129591;19;19938;-68
2022/11/06 07:49:41;;;;;;;6.22;1.10;;;9.00;99.90;;;;;;6128758;19;19942;-70
2022/11/06 07:51:45;;;;;;;8.75;1.60;;;9.20;99.90;;;;;;6131979;19;19915;-68
2022/11/06 07:53:49;;;;;;;4.93;1.70;;;9.00;99.90;;;;;;6127034;19;19911;-68
2022/11/06 07:55:53;;;;;;;6.35;1.65;;;8.90;99.90;;;;;;6127842;19;19946;-68
2022/11/06 07:57:57;;;;;;;4.13;1.80;;;8.80;99.90;;;;;;6130090;19;19914;-68
2022/11/06 08:00:01;;;;;;;5.82;1.63;;;9.20;99.90;;;;;;6130358;19;19919;-68
2022/11/06 08:02:05;;;;;;;3.33;1.02;;;8.80;99.90;;;;;;6130803;19;19992;-69
2022/11/06 08:04:09;;;;;;;6.40;1.40;;;9.00;99.90;;;;;;6130326;19;19929;-68
2022/11/06 08:06:15;;;;;;;3.55;1.40;;;9.00;99.90;;;;;;6129930;19;19915;-68
2022/11/06 08:08:19;;;;;;;2.15;1.50;;;9.30;99.90;;;;;;6129545;19;19922;-69
2022/11/06 08:10:23;;;;;;;3.80;1.35;;;9.30;99.90;;;;;;6131206;19;20447;-69
2022/11/06 08:12:27;;;;;;;3.38;1.08;;;9.00;99.90;;;;;;6132186;19;19918;-68
2022/11/06 08:14:31;;;;;;;4.25;1.45;;;9.50;99.90;;;;;;6128913;19;19942;-68
2022/11/06 08:16:36;;;;;;;3.35;1.45;;;9.00;99.90;;;;;;6129990;19;19930;-68
2022/11/06 08:18:40;;;;;;;4.45;1.30;;;9.00;99.90;;;;;;6132919;19;19941;-69
2022/11/06 08:20:44;;;;;;;5.82;1.20;;;9.10;99.90;;;;;;6129485;19;19919;-68
2022/11/06 08:22:50;;;;;;;4.15;1.55;;;9.20;99.90;;;;;;6128257;19;19914;-68
2022/11/06 08:24:54;;;;;;;4.28;1.50;;;9.10;99.90;;;;;;6128799;19;19919;-68
2022/11/06 08:26:59;;;;;;;5.15;1.20;;;9.30;99.90;;;;;;6130644;19;19923;-68
2022/11/06 08:29:03;;;;;;;2.05;0.80;;;9.30;99.90;;;;;;6123455;19;19921;-68
2022/11/06 08:31:07;;;;;;;2.90;1.35;;;9.00;99.90;;;;;;6127922;19;19941;-69
2022/11/06 08:33:11;;;;;;;2.28;1.10;;;;;;;;;;6130560;19;20339;-69
2022/11/06 08:35:16;;;;;;;4.57;1.23;;;;;;;;;;6128282;19;20256;-69
2022/11/06 08:37:19;;;;;;;2.78;1.23;;;9.20;99.90;;;;;;6131539;19;19945;-69
2022/11/06 08:39:26;;;;;;;7.05;1.20;;;9.40;99.90;;;;;;6130612;19;20263;-69
2022/11/06 08:41:30;;;;;;;5.50;1.10;;;9.40;99.90;;;;;;6101375;19;19911;-69
2022/11/06 08:43:34;;;;;;;3.25;1.20;;;9.50;99.90;;;;;;6120175;19;20563;-69
2022/11/06 08:45:39;;;;;;;4.13;1.15;;;9.40;99.90;;;;;;6130852;19;19922;-69
2022/11/06 08:47:43;;;;;;;3.38;1.33;;;9.20;99.90;;;;;;6127193;19;19922;-69
2022/11/06 08:49:47;;;;;;;4.10;0.95;;;9.20;99.90;;;;;;6126747;19;19942;-69
2022/11/06 08:51:51;;;;;;;6.38;1.17;;;9.00;99.90;;;;;;6130073;19;19930;-69
2022/11/06 08:53:55;;;;;;;5.20;1.25;;;10.00;99.90;;;;;;6128034;19;19926;-70
2022/11/06 08:56:01;;;;;;;3.60;1.30;;;9.50;99.90;;;;;;6127983;19;19918;-69
2022/11/06 08:58:06;;;;;;;6.55;1.15;;;9.20;99.90;;;;;;6128189;19;19923;-69
2022/11/06 09:00:11;;;;;;;4.95;1.30;;;9.40;99.90;;;;;;6127283;19;19918;-69
2022/11/06 09:02:16;;;;;;;3.10;1.30;;;9.70;99.90;;;;;;6126576;19;19918;-69
2022/11/06 09:04:20;;;;;;;12.75;1.60;;;9.50;99.90;;;;;;6036692;19;19990;-69
2022/11/06 09:06:24;;;;;;;3.63;1.05;;;9.20;99.90;;;;;;6122531;19;19927;-69
2022/11/06 09:08:28;;;;;;;3.03;1.13;;;9.10;99.90;;;;;;6119798;19;19918;-69
2022/11/06 09:10:32;;;;;;;7.47;1.58;;;9.70;99.90;;;;;;6127788;19;19946;-69
2022/11/06 09:12:38;;;;;;;7.28;1.50;;;9.40;99.90;;;;;;6129175;19;19915;-68
2022/11/06 09:14:42;;;;;;;3.53;1.20;;;9.50;99.90;;;;;;6130198;19;19925;-68
2022/11/06 09:16:47;;;;;;;4.40;1.17;;;9.20;99.90;;;;;;6129562;19;19918;-68
2022/11/06 09:18:51;;;;;;;3.33;1.10;;;10.00;99.90;;;;;;6128538;19;19922;-67
2022/11/06 09:20:57;;;;;;;4.78;1.67;;;9.70;99.90;;;;;;6126711;19;19922;-68
2022/11/06 09:23:03;;;;;;;4.25;1.60;;;9.90;99.90;;;;;;6127598;19;19919;-68
2022/11/06 09:25:09;;;;;;;3.38;1.52;;;9.60;99.90;;;;;;6125390;19;19926;-67
2022/11/06 09:27:13;;;;;;;6.93;1.45;;;;;;;;;;6125866;19;19919;-69
2022/11/06 09:29:19;;;;;;;3.83;1.38;;;9.50;99.90;;;;;;6126842;19;20305;-68
2022/11/06 09:31:23;;;;;;;2.97;1.50;;;9.50;99.90;;;;;;6124131;19;19986;-68
2022/11/06 09:33:27;;;;;;;5.07;1.27;;;;;;;;;;6127603;19;19927;-69
2022/11/06 09:35:35;;;;;;;7.82;1.58;;;9.70;99.90;;;;;;6128311;19;19922;-70
2022/11/06 09:37:39;;;;;;;5.18;1.48;;;9.70;99.90;;;;;;6128015;19;19911;-68
2022/11/06 09:39:43;;;;;;;5.32;1.38;;;9.40;99.90;;;;;;6126457;19;19938;-68
2022/11/06 09:41:55;;;;;;;4.78;1.23;;;9.80;99.90;;;;;;6129124;19;20256;-68
2022/11/06 09:44:18;;;;;;;6.13;1.42;;;9.60;99.90;;;;;;6126541;19;19928;-68
2022/11/06 09:46:28;;;;;;;2.13;0.82;;;9.90;99.90;;;;;;6130363;19;19914;-68
2022/11/06 09:48:36;;;;;;;4.85;1.17;;;9.50;99.90;;;;;;6126292;19;19928;-68
2022/11/06 09:50:46;;;;;;;6.70;1.95;;;9.80;99.90;;;;;;6127203;19;20526;-69
2022/11/06 09:52:55;;;;;;;4.78;1.20;;;9.30;99.90;;;;;;6129263;19;19919;-68
2022/11/06 09:55:01;;;;;;;;;;;10.00;99.90;;;;;;6125206;19;19922;-68
2022/11/06 09:57:12;;;;;;;4.78;1.33;;;9.80;99.90;;;;;;6125107;19;19914;-69
2022/11/06 09:59:19;;;;;;;7.03;1.70;;;10.60;99.90;;;;;;6125121;19;20014;-69
2022/11/06 10:01:34;;;;;;;5.22;1.23;;;10.50;99.90;;;;;;6127740;19;19911;-69
2022/11/06 10:03:42;;;;;;;;;;;10.50;99.90;;;;;;6132465;19;19942;-69
2022/11/06 10:05:48;;;;;;;5.13;1.58;;;9.80;99.90;;;;;;6127961;19;19919;-67
2022/11/06 10:07:55;;;;;;;4.93;1.52;;;9.90;99.90;;;;;;6125635;19;19927;-68
2022/11/06 10:09:59;;;;;;;4.65;1.60;;;;;;;;;;6127513;19;19931;-67
2022/11/06 10:12:14;;;;;;;3.42;1.20;;;10.20;99.90;;;;;;6129803;19;19922;-69
2022/11/06 10:14:33;;;;;;;2.58;1.30;;;10.10;99.90;;;;;;6122572;19;19930;-68
2022/11/06 10:16:47;;;;;;;3.92;1.50;;;10.60;99.90;;;;;;6125959;19;19938;-69
2022/11/06 10:19:02;;;;;;;3.30;0.93;;;10.10;99.90;;;;;;6124461;19;19987;-68
2022/11/06 10:21:13;;;;;;;2.20;1.05;;;11.40;99.90;;;;;;6109548;19;19938;-70
2022/11/06 10:23:21;;;;;;;5.65;1.90;;;11.00;99.90;;;;;;6103557;19;19949;-68
2022/11/06 10:25:35;;;;;;;7.00;1.58;;;10.60;99.90;;;;;;6121350;19;19923;-67
2022/11/06 10:27:42;;;;;;;5.72;1.40;;;10.60;99.90;;;;;;6116509;19;19923;-67
2022/11/06 10:30:07;;;;;;;5.65;1.30;;;10.20;99.90;;;;;;6122287;19;19919;-67
2022/11/06 10:32:35;;;;;;;7.85;1.48;;;10.50;99.90;;;;;;6122483;19;19940;-67
2022/11/06 10:34:43;;;;;;;3.60;1.20;;;10.40;99.90;;;;;;6121901;19;20276;-67
2022/11/06 10:36:51;;;;;;;3.05;1.08;;;10.40;99.90;;;;;;6126341;19;19918;-67
2022/11/06 10:38:57;;;;;;;2.90;1.27;;;10.00;99.90;;;;;;6126813;19;19942;-67
2022/11/06 10:41:03;;;;;;;4.38;1.10;;;10.50;99.90;;;;;;6122731;19;19915;-67
2022/11/06 10:43:18;;;;;;;8.07;1.65;;;10.70;99.90;;;;;;6125251;19;19914;-67
2022/11/06 10:45:23;;;;;;;7.38;2.00;;;10.40;99.90;;;;;;6124332;19;19926;-67
2022/11/06 10:47:32;;;;;;;4.80;1.20;;;10.70;99.90;;;;;;6122447;19;19918;-67
2022/11/06 10:49:42;;;;;;;4.18;1.48;;;10.50;99.90;;;;;;6125183;19;19923;-68
2022/11/06 10:52:04;;;;;;;5.15;1.40;;;10.60;99.90;;;;;;6125074;19;19937;-68
2022/11/06 10:54:22;;;;;;;7.05;1.90;;;10.80;99.90;;;;;;6118562;19;19927;-67
2022/11/06 10:56:48;;;;;;;4.85;1.15;;;10.60;99.90;;;;;;6126632;19;19915;-67
2022/11/06 10:58:52;;;;;;;5.60;1.33;;;10.30;99.90;;;;;;6122871;19;19950;-67
2022/11/06 11:00:59;;;;;;;5.35;1.50;;;10.70;99.90;;;;;;6124328;19;19946;-67
2022/11/06 11:03:08;;;;;;;6.53;1.30;;;11.10;99.90;;;;;;6126237;19;20018;-67
2022/11/06 11:05:14;;;;;;;6.63;1.40;;;10.30;99.90;;;;;;6123456;19;19927;-67
2022/11/06 11:07:19;;;;;;;2.30;1.25;;;;;;;;;;6131852;19;19931;-68
2022/11/06 11:09:32;;;;;;;5.30;1.40;;;11.00;99.90;;;;;;6128611;19;19923;-67
2022/11/06 11:11:35;;;;;;;3.88;1.52;;;10.60;99.90;;;;;;6125660;19;19911;-68
2022/11/06 11:13:39;;;;;;;10.25;1.70;;;10.80;99.90;;;;;;6124775;19;19915;-68
2022/11/06 11:15:47;;;;;;;3.22;1.27;;;10.90;99.90;;;;;;6129405;19;19919;-68
2022/11/06 11:18:16;;;;;;;4.55;1.30;;;10.60;99.90;;;;;;6121521;19;19915;-68
2022/11/06 11:20:32;;;;;;;3.15;1.52;;;10.80;99.90;;;;;;6127114;19;20338;-67
2022/11/06 11:22:36;;;;;;;4.25;0.98;;;10.50;99.90;;;;;;6117510;19;20348;-67
2022/11/06 11:25:01;;;;;;;3.60;1.20;;;10.80;99.90;;;;;;6123322;19;19945;-67
2022/11/06 11:27:08;;;;;;;4.05;1.60;;;10.80;99.90;;;;;;6117733;19;20812;-69
2022/11/06 11:29:19;;;;;;;3.00;1.15;;;10.60;99.90;;;;;;6128555;19;19929;-67